sensor_id;sensor_type;location;lat;lon;timestamp;P1;durP1;ratioP1;P2;durP2;ratioP2
10967;SDS011;5536;49.602;10.980;2024-03-08T13:43:12;4.45;;;3.40;;
10967;SDS011;5536;49.602;10.980;2024-03-08T13:45:59;4.38;;;3.83;;
10967;SDS011;5536;49.602;10.980;2024-03-08T13:51:22;3.85;;;3.33;;
10967;SDS011;5536;49.602;10.980;2024-03-08T13:54:17;4.00;;;3.60;;
10967;SDS011;5536;49.602;10.980;2024-03-08T13:56:59;4.10;;;3.20;;
10967;SDS011;5536;49.602;10.980;2024-03-08T13:59:49;8.57;;;4.15;;
10967;SDS011;5536;49.602;10.980;2024-03-08T14:02:24;3.78;;;3.38;;
10967;SDS011;5536;49.602;10.980;2024-03-08T18:43:56;8.63;;;4.90;;
10967;SDS011;5536;49.602;10.980;2024-03-08T18:46:23;9.03;;;5.70;;
10967;SDS011;5536;49.602;10.980;2024-03-08T18:48:52;6.67;;;5.23;;
10967;SDS011;5536;49.602;10.980;2024-03-08T18:51:19;8.23;;;5.43;;
10967;SDS011;5536;49.602;10.980;2024-03-08T18:53:48;8.23;;;5.70;;
10967;SDS011;5536;49.602;10.980;2024-03-08T18:56:17;6.27;;;5.37;;
10967;SDS011;5536;49.602;10.980;2024-03-08T18:58:44;7.80;;;4.87;;
10967;SDS011;5536;49.602;10.980;2024-03-08T19:01:13;7.03;;;5.13;;
10967;SDS011;5536;49.602;10.980;2024-03-08T19:03:43;5.50;;;4.83;;
10967;SDS011;5536;49.602;10.980;2024-03-08T19:06:13;6.90;;;4.73;;
10967;SDS011;5536;49.602;10.980;2024-03-08T19:08:43;6.00;;;4.90;;
10967;SDS011;5536;49.602;10.980;2024-03-08T19:11:13;5.57;;;4.83;;
10967;SDS011;5536;49.602;10.980;2024-03-08T19:13:46;10.87;;;5.50;;
10967;SDS011;5536;49.602;10.980;2024-03-08T19:16:28;8.73;;;5.20;;
10967;SDS011;5536;49.602;10.980;2024-03-08T19:18:55;9.30;;;5.60;;
10967;SDS011;5536;49.602;10.980;2024-03-08T19:21:22;12.87;;;5.43;;
10967;SDS011;5536;49.602;10.980;2024-03-08T19:23:50;9.27;;;5.93;;
10967;SDS011;5536;49.602;10.980;2024-03-08T19:26:19;9.37;;;6.17;;
10967;SDS011;5536;49.602;10.980;2024-03-08T19:28:47;5.67;;;5.10;;
10967;SDS011;5536;49.602;10.980;2024-03-08T19:31:15;7.60;;;5.33;;
10967;SDS011;5536;49.602;10.980;2024-03-08T19:33:45;8.23;;;5.50;;
10967;SDS011;5536;49.602;10.980;2024-03-08T19:36:14;6.30;;;4.93;;
10967;SDS011;5536;49.602;10.980;2024-03-08T19:38:43;6.87;;;5.43;;
10967;SDS011;5536;49.602;10.980;2024-03-08T19:41:11;7.70;;;4.80;;
10967;SDS011;5536;49.602;10.980;2024-03-08T19:43:38;10.70;;;5.70;;
10967;SDS011;5536;49.602;10.980;2024-03-08T19:46:06;8.83;;;5.43;;
10967;SDS011;5536;49.602;10.980;2024-03-08T19:48:36;8.23;;;5.53;;
10967;SDS011;5536;49.602;10.980;2024-03-08T19:51:08;15.17;;;5.40;;
10967;SDS011;5536;49.602;10.980;2024-03-08T19:53:38;8.77;;;6.00;;
10967;SDS011;5536;49.602;10.980;2024-03-08T19:56:05;8.33;;;5.27;;
10967;SDS011;5536;49.602;10.980;2024-03-08T19:58:33;8.63;;;6.13;;
10967;SDS011;5536;49.602;10.980;2024-03-08T20:01:01;6.30;;;4.83;;
10967;SDS011;5536;49.602;10.980;2024-03-08T20:03:29;8.33;;;5.73;;
10967;SDS011;5536;49.602;10.980;2024-03-08T20:05:57;9.63;;;5.53;;
10967;SDS011;5536;49.602;10.980;2024-03-08T20:08:26;7.63;;;5.80;;
10967;SDS011;5536;49.602;10.980;2024-03-08T20:10:54;7.83;;;5.43;;
10967;SDS011;5536;49.602;10.980;2024-03-08T20:13:27;9.67;;;5.63;;
10967;SDS011;5536;49.602;10.980;2024-03-08T20:15:58;16.63;;;5.60;;
10967;SDS011;5536;49.602;10.980;2024-03-08T20:18:26;11.60;;;5.87;;
10967;SDS011;5536;49.602;10.980;2024-03-08T20:20:53;8.17;;;5.20;;
10967;SDS011;5536;49.602;10.980;2024-03-08T20:23:21;10.17;;;5.87;;
10967;SDS011;5536;49.602;10.980;2024-03-08T20:25:50;8.47;;;5.67;;
10967;SDS011;5536;49.602;10.980;2024-03-08T20:28:18;7.73;;;5.60;;
10967;SDS011;5536;49.602;10.980;2024-03-08T20:30:45;7.70;;;5.70;;
10967;SDS011;5536;49.602;10.980;2024-03-08T20:33:13;7.50;;;6.07;;
10967;SDS011;5536;49.602;10.980;2024-03-08T20:35:41;8.40;;;5.93;;
10967;SDS011;5536;49.602;10.980;2024-03-08T20:38:10;8.10;;;5.73;;
10967;SDS011;5536;49.602;10.980;2024-03-08T20:40:45;8.63;;;6.13;;
10967;SDS011;5536;49.602;10.980;2024-03-08T20:43:14;11.17;;;6.47;;
10967;SDS011;5536;49.602;10.980;2024-03-08T20:45:43;7.53;;;5.40;;
10967;SDS011;5536;49.602;10.980;2024-03-08T20:48:11;8.87;;;6.30;;
10967;SDS011;5536;49.602;10.980;2024-03-08T20:50:39;9.00;;;5.83;;
10967;SDS011;5536;49.602;10.980;2024-03-08T20:53:07;8.07;;;5.03;;
10967;SDS011;5536;49.602;10.980;2024-03-08T20:55:36;8.97;;;5.60;;
10967;SDS011;5536;49.602;10.980;2024-03-08T20:58:05;13.13;;;6.57;;
10967;SDS011;5536;49.602;10.980;2024-03-08T21:00:34;8.00;;;5.73;;
10967;SDS011;5536;49.602;10.980;2024-03-08T21:03:07;10.60;;;5.80;;
10967;SDS011;5536;49.602;10.980;2024-03-08T21:05:38;10.17;;;5.73;;
10967;SDS011;5536;49.602;10.980;2024-03-08T21:08:07;7.47;;;5.73;;
10967;SDS011;5536;49.602;10.980;2024-03-08T21:10:37;6.97;;;5.50;;
10967;SDS011;5536;49.602;10.980;2024-03-08T21:13:06;7.83;;;5.50;;
10967;SDS011;5536;49.602;10.980;2024-03-08T21:15:37;14.00;;;6.13;;
10967;SDS011;5536;49.602;10.980;2024-03-08T21:18:06;13.97;;;5.97;;
10967;SDS011;5536;49.602;10.980;2024-03-08T21:20:33;7.00;;;5.97;;
10967;SDS011;5536;49.602;10.980;2024-03-08T21:23:01;6.47;;;5.03;;
10967;SDS011;5536;49.602;10.980;2024-03-08T21:25:29;8.37;;;5.63;;
10967;SDS011;5536;49.602;10.980;2024-03-08T21:27:57;8.93;;;5.63;;
10967;SDS011;5536;49.602;10.980;2024-03-08T21:30:25;6.70;;;5.23;;
10967;SDS011;5536;49.602;10.980;2024-03-08T21:32:54;7.00;;;5.57;;
10967;SDS011;5536;49.602;10.980;2024-03-08T21:35:23;8.67;;;5.17;;
10967;SDS011;5536;49.602;10.980;2024-03-08T21:37:50;6.40;;;5.40;;
10967;SDS011;5536;49.602;10.980;2024-03-08T21:40:18;9.97;;;5.97;;
10967;SDS011;5536;49.602;10.980;2024-03-08T21:42:48;8.50;;;5.40;;
10967;SDS011;5536;49.602;10.980;2024-03-08T21:45:19;8.23;;;5.50;;
10967;SDS011;5536;49.602;10.980;2024-03-08T21:47:47;9.20;;;5.73;;
10967;SDS011;5536;49.602;10.980;2024-03-08T21:50:17;7.57;;;5.07;;
10967;SDS011;5536;49.602;10.980;2024-03-08T21:52:45;5.93;;;4.70;;
10967;SDS011;5536;49.602;10.980;2024-03-08T21:55:14;11.70;;;5.73;;
